BLQ weather

Bologna Guglielmo Marconi Airport
Bologna, Emilia-Romagna, Italy

Public forecast

Using degrees Celsius for public forecast. Weather courtesy of forecast.io.

METAR (pilot weather report)

Retrieved 2018/12/18 16:20 UTC (1 minute ago):

LIPE 181620Z VRB02KT 0100 R12/0400N R30/0450N FZFG VV001 M02/M02 Q1028

TAF (pilot weather forecast)

Retrieved 2018/12/18 12:00 UTC (4 hours ago):

TAF LIPE 181100Z 1812/1912 VRB04KT 4000 BR NSC BECMG 1817/1820 0500 FZFG BECMG 1908/1910 2000 BR